Time;durP1;ratioP1;P1;durP2;ratioP2;P2;SDS_P1;SDS_P2;PMS_P1;PMS_P2;Temp;Humidity;BMP_temperature;BMP_pressure;BME280_temperature;BME280_humidity;BME280_pressure;Samples;Min_cycle;Max_cycle;Signal;HPM_P1;HPM_P2
2022/01/07 00:01:01;;;;;;;3.38;1.80;;;;;;;;;;5061088;28;20071;-59
2022/01/07 00:03:27;;;;;;;4.72;2.15;;;;;;;;;;5052852;28;20440;-58
2022/01/07 00:05:54;;;;;;;3.40;1.92;;;;;;;;;;5063861;28;20029;-58
2022/01/07 00:08:20;;;;;;;4.50;1.98;;;;;;;;;;5070232;28;20032;-56
2022/01/07 00:10:46;;;;;;;2.55;1.50;;;;;;;;;;5067279;28;20082;-58
2022/01/07 00:13:13;;;;;;;4.07;2.10;;;;;;;;;;5067870;28;20024;-59
2022/01/07 00:15:39;;;;;;;2.78;1.70;;;;;;;;;;5050718;28;20700;-56
2022/01/07 00:18:05;;;;;;;3.15;1.40;;;;;;;;;;5050901;28;20032;-56
2022/01/07 00:20:31;;;;;;;2.38;1.50;;;;;;;;;;5039179;28;20103;-58
2022/01/07 00:22:57;;;;;;;8.00;2.50;;;;;;;;;;5069304;28;20107;-56
2022/01/07 00:25:24;;;;;;;3.70;1.65;;;;;;;;;;5062474;28;20178;-58
2022/01/07 00:27:51;;;;;;;4.07;2.00;;;;;;;;;;5071178;28;20033;-56
2022/01/07 00:30:18;;;;;;;4.07;1.85;;;;;;;;;;5060919;28;20017;-58
2022/01/07 00:32:44;;;;;;;3.20;1.92;;;;;;;;;;5058983;28;20021;-58
2022/01/07 00:35:12;;;;;;;5.50;1.95;;;;;;;;;;5057783;28;20147;-60
2022/01/07 00:37:38;;;;;;;5.25;2.35;;;;;;;;;;5060200;28;20131;-57
2022/01/07 00:40:06;;;;;;;2.83;1.77;;;;;;;;;;5051046;28;20033;-58
2022/01/07 00:42:32;;;;;;;4.65;1.92;;;;;;;;;;5050263;28;20028;-58
2022/01/07 00:44:58;;;;;;;3.05;2.08;;;;;;;;;;5051254;28;20518;-56
2022/01/07 00:47:24;;;;;;;3.28;1.60;;;;;;;;;;5050220;28;20021;-56
2022/01/07 00:49:50;;;;;;;3.97;2.30;;;;;;;;;;5051023;28;20104;-56
2022/01/07 00:52:16;;;;;;;3.65;2.05;;;;;;;;;;5053304;28;20382;-58
2022/01/07 00:54:42;;;;;;;3.85;1.85;;;;;;;;;;5070347;28;20028;-56
2022/01/07 00:57:08;;;;;;;2.83;1.70;;;;;;;;;;5037247;28;20490;-57
2022/01/07 00:59:34;;;;;;;3.10;1.70;;;;;;;;;;5050838;28;20025;-56
2022/01/07 01:02:01;;;;;;;3.15;1.65;;;;;;;;;;5051640;28;20033;-56
2022/01/07 01:04:27;;;;;;;2.90;1.50;;;;;;;;;;5059053;28;20029;-58
2022/01/07 01:06:53;;;;;;;3.97;2.20;;;;;;;;;;5069530;28;20108;-56
2022/01/07 01:09:19;;;;;;;2.42;1.83;;;;;;;;;;5069812;28;20108;-56
2022/01/07 01:11:45;;;;;;;2.88;1.80;;;;;;;;;;5070876;28;20020;-58
2022/01/07 01:14:11;;;;;;;5.30;1.98;;;;;;;;;;5063100;28;20706;-60
2022/01/07 01:16:37;;;;;;;3.28;1.67;;;;;;;;;;5065886;28;20029;-56
2022/01/07 01:19:04;;;;;;;4.53;2.10;;;;;;;;;;5070429;28;20032;-58
2022/01/07 01:21:30;;;;;;;3.67;1.75;;;;;;;;;;5055901;28;20028;-56
2022/01/07 01:23:56;;;;;;;4.10;2.05;;;;;;;;;;5060114;28;20033;-56
2022/01/07 01:26:22;;;;;;;3.47;1.88;;;;;;;;;;5069167;28;20094;-56
2022/01/07 01:28:48;;;;;;;3.17;1.60;;;;;;;;;;5070429;28;20031;-56
2022/01/07 01:31:16;;;;;;;3.90;1.60;;;;;;;;;;5069863;28;20128;-56
2022/01/07 01:33:42;;;;;;;4.75;1.77;;;;;;;;;;5070564;28;20107;-58
2022/01/07 01:36:09;;;;;;;2.95;1.70;;;;;;;;;;5059150;28;20044;-58
2022/01/07 01:38:35;;;;;;;4.75;1.80;;;;;;;;;;5050905;28;20037;-59
2022/01/07 01:41:02;;;;;;;4.22;2.30;;;;;;;;;;5051595;28;20036;-56
2022/01/07 01:43:28;;;;;;;2.70;1.65;;;;;;;;;;5050585;28;20041;-56
2022/01/07 01:45:54;;;;;;;3.42;1.52;;;;;;;;;;5059672;28;20027;-56
2022/01/07 01:48:20;;;;;;;2.72;1.55;;;;;;;;;;5066841;28;20466;-58
2022/01/07 01:50:47;;;;;;;2.70;1.48;;;;;;;;;;5051314;28;20024;-56
2022/01/07 01:53:14;;;;;;;3.70;2.13;;;;;;;;;;5050748;28;20029;-61
2022/01/07 01:55:40;;;;;;;2.63;1.55;;;;;;;;;;5057603;28;20017;-58
2022/01/07 01:58:06;;;;;;;2.78;1.95;;;;;;;;;;5070451;28;20028;-58
2022/01/07 02:00:32;;;;;;;3.00;1.52;;;;;;;;;;5051446;28;20025;-56
2022/01/07 02:02:58;;;;;;;3.85;1.90;;;;;;;;;;5051082;28;20115;-56
2022/01/07 02:05:26;;;;;;;6.18;2.47;;;;;;;;;;5056939;28;20056;-56
2022/01/07 02:07:52;;;;;;;2.85;1.40;;;;;;;;;;5075186;28;20067;-56
2022/01/07 02:10:18;;;;;;;3.17;1.65;;;;;;;;;;5074014;28;20489;-58
2022/01/07 02:12:45;;;;;;;2.72;1.58;;;;;;;;;;5074717;28;20035;-56
2022/01/07 02:15:12;;;;;;;2.08;1.20;;;;;;;;;;5040227;28;20044;-61
2022/01/07 02:17:40;;;;;;;3.17;1.42;;;;;;;;;;5056185;28;20239;-56
2022/01/07 02:20:07;;;;;;;2.58;1.75;;;;;;;;;;5074383;28;20016;-56
2022/01/07 02:22:33;;;;;;;10.68;2.20;;;;;;;;;;5073017;28;20036;-56
2022/01/07 02:24:59;;;;;;;2.22;1.73;;;;;;;;;;5070967;28;20431;-58
2022/01/07 02:27:25;;;;;;;3.83;1.38;;;;;;;;;;5055107;28;20021;-58
2022/01/07 02:29:52;;;;;;;3.53;2.00;;;;;;;;;;5054471;28;20370;-56
2022/01/07 02:32:18;;;;;;;3.35;1.50;;;;;;;;;;5053556;28;20024;-56
2022/01/07 02:34:45;;;;;;;4.55;2.15;;;;;;;;;;5069936;28;20485;-58
2022/01/07 02:37:12;;;;;;;3.97;2.10;;;;;;;;;;5055588;28;20130;-60
2022/01/07 02:39:38;;;;;;;3.03;1.83;;;;;;;;;;5053982;28;20044;-56
2022/01/07 02:42:05;;;;;;;3.97;1.92;;;;;;;;;;5054483;28;20036;-56
2022/01/07 02:44:31;;;;;;;2.92;1.67;;;;;;;;;;5066934;28;20032;-57
2022/01/07 02:46:57;;;;;;;3.85;1.73;;;;;;;;;;5057504;28;20475;-58
2022/01/07 02:49:23;;;;;;;3.42;1.65;;;;;;;;;;5053145;28;20028;-57
2022/01/07 02:51:49;;;;;;;2.92;1.38;;;;;;;;;;5053839;28;20025;-56
2022/01/07 02:54:16;;;;;;;2.92;1.70;;;;;;;;;;5066919;28;20374;-60
2022/01/07 02:56:42;;;;;;;3.60;1.70;;;;;;;;;;5060395;28;20029;-56
2022/01/07 02:59:09;;;;;;;3.30;1.63;;;;;;;;;;5053602;28;20025;-56
2022/01/07 03:01:37;;;;;;;2.55;1.50;;;;;;;;;;5052839;28;20028;-57
2022/01/07 03:04:03;;;;;;;3.25;1.85;;;;;;;;;;5053675;28;20041;-56
2022/01/07 03:06:30;;;;;;;2.40;1.48;;;;;;;;;;5064405;28;20033;-56
2022/01/07 03:08:56;;;;;;;2.88;2.08;;;;;;;;;;5073655;28;20059;-56
2022/01/07 03:11:22;;;;;;;2.67;1.35;;;;;;;;;;5068408;28;20036;-58
2022/01/07 03:13:49;;;;;;;2.30;1.40;;;;;;;;;;5053445;28;20040;-56
2022/01/07 03:16:15;;;;;;;2.38;1.60;;;;;;;;;;5061570;28;20104;-60
2022/01/07 03:18:41;;;;;;;2.80;1.48;;;;;;;;;;5073202;28;20028;-56
2022/01/07 03:21:07;;;;;;;2.33;1.50;;;;;;;;;;5071378;28;20074;-56
2022/01/07 03:23:35;;;;;;;3.42;1.98;;;;;;;;;;5058818;28;20096;-56
2022/01/07 03:26:01;;;;;;;4.03;2.08;;;;;;;;;;5072515;28;20020;-56
2022/01/07 03:28:27;;;;;;;3.10;1.50;;;;;;;;;;5072575;28;20042;-56
2022/01/07 03:30:53;;;;;;;2.13;1.55;;;;;;;;;;5073178;28;20016;-57
2022/01/07 03:33:19;;;;;;;2.42;1.40;;;;;;;;;;5052760;28;20077;-58
2022/01/07 03:35:46;;;;;;;2.78;1.80;;;;;;;;;;5056952;28;20064;-56
2022/01/07 03:38:12;;;;;;;4.03;1.77;;;;;;;;;;5073019;28;20496;-55
2022/01/07 03:40:38;;;;;;;2.70;1.67;;;;;;;;;;5057662;28;20033;-56
2022/01/07 03:43:04;;;;;;;2.38;1.65;;;;;;;;;;5052702;28;20033;-55
2022/01/07 03:45:30;;;;;;;4.88;1.95;;;;;;;;;;5053134;28;20476;-55
2022/01/07 03:47:56;;;;;;;4.50;1.95;;;;;;;;;;5053099;28;20466;-54
2022/01/07 03:50:23;;;;;;;2.22;1.50;;;;;;;;;;5051960;28;20370;-55
2022/01/07 03:52:50;;;;;;;2.65;1.50;;;;;;;;;;5052723;28;20100;-56
2022/01/07 03:55:18;;;;;;;2.88;1.67;;;;;;;;;;5064918;28;20059;-59
2022/01/07 03:57:44;;;;;;;4.05;2.28;;;;;;;;;;5052862;28;20408;-56
2022/01/07 04:00:12;;;;;;;2.15;1.40;;;;;;;;;;5052737;28;20021;-56
2022/01/07 04:02:38;;;;;;;2.45;1.55;;;;;;;;;;5051949;28;20025;-56
2022/01/07 04:05:04;;;;;;;3.03;1.90;;;;;;;;;;5052467;28;20079;-56
2022/01/07 04:07:33;;;;;;;2.53;1.73;;;;;;;;;;5069945;28;20464;-56
2022/01/07 04:10:00;;;;;;;2.10;1.55;;;;;;;;;;5054461;28;20115;-56
2022/01/07 04:12:29;;;;;;;3.75;1.50;;;;;;;;;;5071316;28;20453;-56
2022/01/07 04:15:10;;;;;;;2.38;1.60;;;;;;;;;;5059464;28;20036;-56
2022/01/07 04:17:37;;;;;;;2.55;1.40;;;;;;;;;;5070387;28;20052;-56
2022/01/07 04:20:04;;;;;;;3.40;1.40;;;;;;;;;;5072091;28;20031;-55
2022/01/07 04:22:30;;;;;;;2.97;1.40;;;;;;;;;;5057912;28;20063;-56
2022/01/07 04:24:56;;;;;;;1.80;1.35;;;;;;;;;;5069847;28;20039;-54
2022/01/07 04:27:21;;;;;;;2.05;1.50;;;;;;;;;;5069884;28;20032;-56
2022/01/07 04:29:48;;;;;;;2.25;1.55;;;;;;;;;;5071779;28;20389;-56
2022/01/07 04:32:14;;;;;;;2.63;1.80;;;;;;;;;;5061113;28;20107;-56
2022/01/07 04:34:40;;;;;;;1.75;1.45;;;;;;;;;;5051038;28;20098;-56
2022/01/07 04:37:06;;;;;;;2.78;1.63;;;;;;;;;;5065895;28;20473;-56
2022/01/07 04:39:32;;;;;;;1.40;1.30;;;;;;;;;;5071424;28;20078;-56
2022/01/07 04:41:59;;;;;;;3.28;1.52;;;;;;;;;;5071672;28;20074;-56
2022/01/07 04:44:25;;;;;;;3.40;1.90;;;;;;;;;;5071293;28;20029;-56
2022/01/07 04:46:51;;;;;;;2.65;1.80;;;;;;;;;;5059838;28;20418;-57
2022/01/07 04:49:17;;;;;;;1.98;1.40;;;;;;;;;;5051584;28;20063;-59
2022/01/07 04:51:49;;;;;;;1.88;1.33;;;;;;;;;;5051167;28;20025;-54
2022/01/07 04:54:15;;;;;;;1.75;1.10;;;;;;;;;;5051886;28;20025;-56
2022/01/07 04:56:41;;;;;;;2.47;2.05;;;;;;;;;;5060706;28;20047;-56
2022/01/07 04:59:07;;;;;;;3.13;1.65;;;;;;;;;;5055126;28;20021;-56
2022/01/07 05:01:33;;;;;;;2.10;1.50;;;;;;;;;;5050622;28;20025;-55
2022/01/07 05:03:59;;;;;;;3.35;1.67;;;;;;;;;;5051966;28;20032;-56
2022/01/07 05:08:57;;;;;;;2.38;1.40;;;;;;;;;;5071833;28;20037;-56
2022/01/07 05:11:23;;;;;;;1.65;1.25;;;;;;;;;;5070364;28;20020;-57
2022/01/07 05:13:49;;;;;;;1.52;1.25;;;;;;;;;;5071873;28;20032;-56
2022/01/07 05:16:15;;;;;;;3.08;1.30;;;;;;;;;;5063401;28;20017;-56
2022/01/07 05:18:41;;;;;;;2.45;1.65;;;;;;;;;;5070650;28;20495;-56
2022/01/07 05:21:07;;;;;;;1.55;1.15;;;;;;;;;;5071551;28;20044;-56
2022/01/07 05:23:33;;;;;;;2.33;1.27;;;;;;;;;;5064273;28;20063;-56
2022/01/07 05:25:59;;;;;;;3.13;1.50;;;;;;;;;;5052944;28;20048;-56
2022/01/07 05:28:25;;;;;;;1.63;1.35;;;;;;;;;;5050718;28;20462;-54
2022/01/07 05:30:51;;;;;;;1.50;1.20;;;;;;;;;;5051623;28;20108;-54
2022/01/07 05:33:17;;;;;;;3.08;1.80;;;;;;;;;;5051387;28;20056;-60
2022/01/07 05:35:43;;;;;;;3.08;1.30;;;;;;;;;;5062379;28;20032;-54
2022/01/07 05:38:09;;;;;;;1.60;1.20;;;;;;;;;;5071715;28;20052;-54
2022/01/07 05:40:35;;;;;;;2.55;1.45;;;;;;;;;;5073863;28;20480;-55
2022/01/07 05:43:01;;;;;;;1.52;1.10;;;;;;;;;;5068054;28;20017;-56
2022/01/07 05:45:27;;;;;;;2.67;1.27;;;;;;;;;;5064774;28;20497;-58
2022/01/07 05:47:53;;;;;;;2.42;1.30;;;;;;;;;;5055342;28;20028;-56
2022/01/07 05:50:19;;;;;;;3.67;1.63;;;;;;;;;;5054818;28;20074;-60
2022/01/07 05:52:45;;;;;;;1.38;1.13;;;;;;;;;;5070295;28;20024;-56
2022/01/07 05:55:11;;;;;;;2.08;1.40;;;;;;;;;;5066875;28;20037;-57
2022/01/07 05:57:38;;;;;;;2.22;1.35;;;;;;;;;;5053915;28;20044;-56
2022/01/07 06:00:08;;;;;;;1.85;1.10;;;;;;;;;;5054960;28;20106;-56
2022/01/07 06:02:33;;;;;;;1.88;1.27;;;;;;;;;;5068604;28;20066;-57
2022/01/07 06:04:59;;;;;;;2.20;1.45;;;;;;;;;;5063795;28;20064;-56
2022/01/07 06:07:25;;;;;;;1.40;1.10;;;;;;;;;;5073317;28;20039;-57
2022/01/07 06:09:51;;;;;;;1.48;1.15;;;;;;;;;;5074544;28;20028;-55
2022/01/07 06:12:18;;;;;;;2.17;1.23;;;;;;;;;;5062035;28;20033;-53
2022/01/07 06:14:43;;;;;;;2.92;1.23;;;;;;;;;;5054309;28;20028;-52
2022/01/07 06:17:11;;;;;;;2.38;1.15;;;;;;;;;;5036774;28;20425;-57
2022/01/07 06:19:37;;;;;;;1.98;1.23;;;;;;;;;;5071387;28;20021;-56
2022/01/07 06:22:04;;;;;;;1.40;1.08;;;;;;;;;;5074372;28;20027;-53
2022/01/07 06:24:30;;;;;;;1.60;1.15;;;;;;;;;;5059389;28;20473;-53
2022/01/07 06:26:56;;;;;;;2.03;1.13;;;;;;;;;;5054314;28;20112;-53
2022/01/07 06:29:22;;;;;;;1.52;1.10;;;;;;;;;;5053471;28;20099;-59
2022/01/07 06:31:48;;;;;;;1.17;1.02;;;;;;;;;;5054066;28;20032;-50
2022/01/07 06:34:14;;;;;;;1.83;1.02;;;;;;;;;;5054241;28;20088;-52
2022/01/07 06:36:40;;;;;;;3.15;1.35;;;;;;;;;;5071476;28;20049;-52
2022/01/07 06:39:06;;;;;;;1.60;1.10;;;;;;;;;;5073764;28;20097;-55
2022/01/07 06:41:32;;;;;;;2.20;0.98;;;;;;;;;;5073305;28;20044;-55
2022/01/07 06:43:58;;;;;;;2.53;1.40;;;;;;;;;;5072877;28;20072;-58
2022/01/07 06:46:24;;;;;;;1.98;1.02;;;;;;;;;;5053712;28;20427;-60
2022/01/07 06:48:50;;;;;;;5.90;1.23;;;;;;;;;;5053420;28;20169;-49
2022/01/07 06:51:16;;;;;;;3.72;1.48;;;;;;;;;;5057389;28;20032;-57
2022/01/07 06:53:42;;;;;;;1.63;1.30;;;;;;;;;;5072884;28;20017;-58
2022/01/07 06:56:08;;;;;;;1.40;1.00;;;;;;;;;;5056039;28;20497;-58
2022/01/07 06:58:34;;;;;;;4.90;1.20;;;;;;;;;;5052854;28;20106;-58
2022/01/07 07:01:00;;;;;;;3.50;1.30;;;;;;;;;;5053758;28;20072;-52
2022/01/07 07:03:26;;;;;;;3.45;1.42;;;;;;;;;;5052612;28;20442;-57
2022/01/07 07:05:52;;;;;;;3.00;1.33;;;;;;;;;;5068236;28;20043;-51
2022/01/07 07:08:18;;;;;;;2.72;1.17;;;;;;;;;;5073469;28;20040;-48
2022/01/07 07:10:44;;;;;;;3.55;1.20;;;;;;;;;;5073083;28;20832;-54
2022/01/07 07:13:10;;;;;;;4.40;1.55;;;;;;;;;;5073410;28;20035;-55
2022/01/07 07:15:36;;;;;;;2.67;1.08;;;;;;;;;;5060092;28;20104;-57
2022/01/07 07:18:02;;;;;;;5.32;1.38;;;;;;;;;;5053693;28;20404;-57
2022/01/07 07:20:28;;;;;;;5.18;0.90;;;;;;;;;;5052733;28;20056;-58
2022/01/07 07:22:54;;;;;;;4.93;1.20;;;;;;;;;;5054315;28;20029;-58
2022/01/07 07:25:23;;;;;;;9.20;2.22;;;;;;;;;;5072060;28;20495;-59
2022/01/07 07:27:49;;;;;;;3.03;1.88;;;;;;;;;;5062563;28;20025;-58
2022/01/07 07:30:15;;;;;;;5.05;2.67;;;;;;;;;;5073433;28;20104;-54
2022/01/07 07:32:41;;;;;;;5.30;2.10;;;;;;;;;;5073467;28;20032;-58
2022/01/07 07:37:46;;;;;;;9.77;2.47;;;;;;;;;;5052158;28;20060;-59
2022/01/07 07:40:12;;;;;;;11.35;2.40;;;;;;;;;;5063944;28;20036;-59
2022/01/07 07:42:42;;;;;;;6.28;2.08;;;;;;;;;;5071962;28;20028;-59
2022/01/07 07:45:08;;;;;;;5.18;2.28;;;;;;;;;;5061580;28;20125;-59
2022/01/07 07:47:35;;;;;;;2.55;1.50;;;;;;;;;;5052475;28;20021;-59
2022/01/07 07:50:02;;;;;;;3.60;1.90;;;;;;;;;;5052924;28;20370;-59
2022/01/07 07:52:28;;;;;;;6.38;1.58;;;;;;;;;;5051880;28;20485;-59
2022/01/07 07:54:54;;;;;;;4.32;2.80;;;;;;;;;;5042916;28;20117;-60
2022/01/07 07:57:20;;;;;;;4.28;2.50;;;;;;;;;;5043161;28;20017;-60
2022/01/07 07:59:46;;;;;;;3.40;2.00;;;;;;;;;;5051973;28;20652;-60
2022/01/07 08:02:12;;;;;;;3.35;2.03;;;;;;;;;;5052397;28;20114;-59
2022/01/07 08:04:39;;;;;;;4.28;2.22;;;;;;;;;;5055523;28;20076;-60
2022/01/07 08:07:05;;;;;;;3.13;1.80;;;;;;;;;;5053067;28;20025;-61
2022/01/07 08:09:36;;;;;;;3.00;1.30;;;;;;;;;;5032584;28;20027;-61
2022/01/07 08:12:18;;;;;;;2.72;1.38;;;;;;;;;;5051795;28;20492;-60
2022/01/07 08:17:29;;;;;;;2.05;1.60;;;;;;;;;;5065952;28;20103;-61
2022/01/07 08:19:55;;;;;;;2.03;1.30;;;;;;;;;;5052309;28;20033;-61
2022/01/07 08:22:21;;;;;;;2.03;1.15;;;;;;;;;;5062442;28;20386;-60
2022/01/07 08:24:47;;;;;;;1.95;1.38;;;;;;;;;;5044187;28;20062;-59
2022/01/07 08:27:13;;;;;;;1.48;1.13;;;;;;;;;;5069081;28;20059;-59
2022/01/07 08:29:41;;;;;;;1.92;1.20;;;;;;;;;;5066088;28;20033;-57
2022/01/07 08:34:56;;;;;;;2.72;1.15;;;;;;;;;;5058894;28;20596;-59
2022/01/07 08:37:26;;;;;;;2.08;1.40;;;;;;;;;;5051813;28;20130;-58
2022/01/07 08:39:54;;;;;;;1.92;1.25;;;;;;;;;;5050677;28;20036;-59
2022/01/07 08:42:20;;;;;;;3.75;1.42;;;;;;;;;;5051787;28;20025;-59
2022/01/07 08:44:46;;;;;;;7.05;1.27;;;;;;;;;;5032699;28;20029;-59
2022/01/07 08:47:12;;;;;;;3.45;1.13;;;;;;;;;;5050839;28;20544;-59
2022/01/07 08:49:38;;;;;;;3.78;1.20;;;;;;;;;;5041615;28;20082;-59
2022/01/07 08:52:04;;;;;;;2.35;1.27;;;;;;;;;;5071764;28;20025;-58
2022/01/07 08:54:30;;;;;;;2.95;1.25;;;;;;;;;;5053712;28;20385;-59
2022/01/07 08:56:56;;;;;;;3.00;1.02;;;;;;;;;;5044355;28;20036;-58
2022/01/07 08:59:22;;;;;;;3.05;1.25;;;;;;;;;;5051468;28;20018;-59
2022/01/07 09:01:48;;;;;;;1.65;0.85;;;;;;;;;;5051236;28;20021;-59
2022/01/07 09:04:15;;;;;;;3.17;0.90;;;;;;;;;;5060848;28;20470;-59
2022/01/07 09:06:41;;;;;;;2.00;1.00;;;;;;;;;;5072321;28;20025;-54
2022/01/07 09:09:07;;;;;;;1.02;0.90;;;;;;;;;;5054572;28;20045;-61
2022/01/07 09:11:33;;;;;;;1.48;0.93;;;;;;;;;;5055588;28;20373;-58
2022/01/07 09:13:59;;;;;;;1.45;1.08;;;;;;;;;;5072802;28;20024;-56
2022/01/07 09:16:25;;;;;;;2.90;1.25;;;;;;;;;;5075901;28;20036;-59
2022/01/07 09:18:51;;;;;;;1.52;1.10;;;;;;;;;;5055314;28;20025;-57
2022/01/07 09:21:20;;;;;;;1.80;1.00;;;;;;;;;;5056640;28;20029;-57
2022/01/07 09:23:47;;;;;;;2.70;1.25;;;;;;;;;;5065685;28;20020;-49
2022/01/07 09:26:13;;;;;;;1.85;0.82;;;;;;;;;;5055893;28;20040;-50
2022/01/07 09:28:40;;;;;;;3.08;1.00;;;;;;;;;;5055315;28;20032;-47
2022/01/07 09:31:06;;;;;;;1.40;0.90;;;;;;;;;;5056247;28;20029;-48
2022/01/07 09:33:32;;;;;;;2.88;1.40;;;;;;;;;;5055464;28;20083;-47
2022/01/07 09:35:58;;;;;;;1.60;1.35;;;;;;;;;;5067694;28;20032;-51
2022/01/07 09:38:26;;;;;;;1.75;1.00;;;;;;;;;;5073341;28;20052;-51
2022/01/07 09:40:52;;;;;;;1.30;0.90;;;;;;;;;;5073517;28;20020;-47
2022/01/07 09:43:18;;;;;;;2.20;1.20;;;;;;;;;;5074517;28;20033;-48
2022/01/07 09:45:44;;;;;;;1.80;1.08;;;;;;;;;;5066398;28;20021;-48
2022/01/07 09:48:10;;;;;;;1.58;1.08;;;;;;;;;;5055171;28;20021;-51
2022/01/07 09:50:37;;;;;;;2.38;0.88;;;;;;;;;;5054013;28;20100;-51
2022/01/07 09:53:05;;;;;;;1.00;0.70;;;;;;;;;;5055559;28;20025;-56
2022/01/07 09:55:31;;;;;;;3.25;1.17;;;;;;;;;;5055027;28;20025;-49
2022/01/07 09:57:57;;;;;;;1.20;0.90;;;;;;;;;;5054335;28;20029;-51
2022/01/07 10:00:23;;;;;;;2.45;1.45;;;;;;;;;;5054992;28;20029;-52
2022/01/07 10:03:04;;;;;;;1.27;0.80;;;;;;;;;;5054428;28;20381;-52
2022/01/07 10:05:30;;;;;;;1.52;0.80;;;;;;;;;;5062264;28;20119;-54
2022/01/07 10:07:57;;;;;;;1.17;0.90;;;;;;;;;;5061374;28;20032;-54
2022/01/07 10:10:23;;;;;;;4.90;1.17;;;;;;;;;;5056003;28;20485;-52
2022/01/07 10:13:00;;;;;;;2.45;0.90;;;;;;;;;;5054856;28;20393;-54
2022/01/07 10:15:28;;;;;;;1.83;0.73;;;;;;;;;;5061025;28;20016;-55
2022/01/07 10:18:03;;;;;;;1.30;0.80;;;;;;;;;;5093994;28;20534;-52
2022/01/07 10:20:41;;;;;;;1.65;1.02;;;;;;;;;;5094831;28;20081;-53
2022/01/07 10:23:07;;;;;;;1.40;0.80;;;;;;;;;;5077928;28;20397;-53
2022/01/07 10:25:34;;;;;;;1.63;1.00;;;;;;;;;;5058053;28;20037;-53
2022/01/07 10:28:10;;;;;;;1.30;0.85;;;;;;;;;;5059596;28;20500;-53
2022/01/07 10:30:38;;;;;;;1.00;0.80;;;;;;;;;;5066737;28;20016;-58
2022/01/07 10:33:16;;;;;;;2.83;1.00;;;;;;;;;;5074130;28;20024;-55
2022/01/07 10:35:42;;;;;;;1.98;1.10;;;;;;;;;;5074152;28;20032;-55
2022/01/07 10:38:08;;;;;;;1.67;1.00;;;;;;;;;;5072683;28;20052;-53
2022/01/07 10:40:36;;;;;;;1.48;0.98;;;;;;;;;;5054378;28;20115;-58
2022/01/07 10:43:09;;;;;;;1.98;1.08;;;;;;;;;;5060710;28;20056;-59
2022/01/07 10:45:35;;;;;;;3.90;1.30;;;;;;;;;;5074229;28;20393;-58
2022/01/07 10:48:01;;;;;;;1.35;1.00;;;;;;;;;;5073557;28;20489;-57
2022/01/07 10:50:27;;;;;;;4.25;1.40;;;;;;;;;;5074277;28;20115;-63
2022/01/07 10:53:13;;;;;;;1.42;1.00;;;;;;;;;;5068466;28;20092;-60
2022/01/07 10:55:39;;;;;;;3.58;1.17;;;;;;;;;;5053676;28;20053;-61
2022/01/07 10:58:05;;;;;;;1.95;0.98;;;;;;;;;;5064641;28;20377;-61
2022/01/07 11:00:36;;;;;;;2.70;1.23;;;;;;;;;;5067088;28;20111;-60
2022/01/07 11:03:07;;;;;;;1.23;0.90;;;;;;;;;;5053763;28;20458;-61
2022/01/07 11:05:33;;;;;;;3.90;0.90;;;;;;;;;;5054480;28;20029;-60
2022/01/07 11:07:59;;;;;;;3.40;1.08;;;;;;;;;;5053919;28;20067;-60
2022/01/07 11:10:26;;;;;;;3.17;0.80;;;;;;;;;;5073824;28;20021;-60
2022/01/07 11:12:52;;;;;;;1.27;0.75;;;;;;;;;;5073297;28;20474;-59
2022/01/07 11:15:18;;;;;;;2.28;1.10;;;;;;;;;;5053783;28;20068;-60
2022/01/07 11:17:44;;;;;;;2.80;1.50;;;;;;;;;;5053071;28;20017;-57
2022/01/07 11:20:12;;;;;;;1.50;0.90;;;;;;;;;;5053405;28;20031;-60
2022/01/07 11:22:40;;;;;;;3.50;1.30;;;;;;;;;;5054012;28;20066;-59
2022/01/07 11:25:08;;;;;;;7.68;1.02;;;;;;;;;;5071957;28;20028;-58
2022/01/07 11:27:46;;;;;;;3.40;0.75;;;;;;;;;;5070867;28;20017;-57
2022/01/07 11:30:14;;;;;;;2.70;1.00;;;;;;;;;;5053561;28;20025;-59
2022/01/07 11:32:44;;;;;;;3.00;1.05;;;;;;;;;;5053098;28;20086;-61
2022/01/07 11:35:19;;;;;;;4.00;1.02;;;;;;;;;;5071216;28;20032;-60
2022/01/07 11:37:55;;;;;;;1.38;0.93;;;;;;;;;;5056636;28;20106;-59
2022/01/07 11:40:33;;;;;;;3.15;1.55;;;;;;;;;;5053548;28;20029;-59
2022/01/07 11:42:59;;;;;;;2.25;0.88;;;;;;;;;;5053033;28;20104;-60
2022/01/07 11:45:32;;;;;;;2.53;0.90;;;;;;;;;;5053188;28;20029;-59
2022/01/07 11:48:10;;;;;;;3.08;0.90;;;;;;;;;;5052787;28;20500;-59
2022/01/07 11:50:59;;;;;;;3.75;0.93;;;;;;;;;;5053214;28;20083;-58
2022/01/07 11:53:30;;;;;;;1.60;1.10;;;;;;;;;;5043085;28;20055;-60
2022/01/07 11:55:59;;;;;;;1.80;0.77;;;;;;;;;;5072666;28;20043;-60
2022/01/07 11:58:39;;;;;;;0.95;0.70;;;;;;;;;;5087200;28;20024;-60
2022/01/07 12:01:05;;;;;;;2.60;0.80;;;;;;;;;;5083980;28;20032;-57
2022/01/07 12:03:34;;;;;;;3.08;1.13;;;;;;;;;;5069066;28;20477;-57
2022/01/07 12:06:01;;;;;;;1.75;0.98;;;;;;;;;;5051950;28;20040;-58
2022/01/07 12:08:40;;;;;;;1.70;0.85;;;;;;;;;;5052755;28;20402;-61
2022/01/07 12:11:09;;;;;;;1.40;0.95;;;;;;;;;;5054886;28;20035;-60
2022/01/07 12:13:36;;;;;;;2.47;1.02;;;;;;;;;;5068674;28;20363;-60
2022/01/07 12:16:03;;;;;;;1.75;0.93;;;;;;;;;;5051650;28;20051;-60
2022/01/07 12:18:32;;;;;;;3.55;1.33;;;;;;;;;;5052805;28;20048;-61
2022/01/07 12:20:59;;;;;;;1.48;1.05;;;;;;;;;;5052069;28;20116;-61
2022/01/07 12:23:25;;;;;;;1.58;0.80;;;;;;;;;;5056927;28;20505;-60
2022/01/07 12:25:52;;;;;;;2.38;1.23;;;;;;;;;;5062075;28;20065;-56
2022/01/07 12:28:18;;;;;;;1.85;0.85;;;;;;;;;;5061357;28;20036;-58
2022/01/07 12:30:45;;;;;;;1.65;0.90;;;;;;;;;;5070868;28;20374;-60
2022/01/07 12:33:11;;;;;;;1.38;0.98;;;;;;;;;;5072493;28;20404;-48
2022/01/07 12:35:38;;;;;;;2.70;0.88;;;;;;;;;;5072204;28;20040;-54
2022/01/07 12:38:11;;;;;;;2.95;1.20;;;;;;;;;;5055884;28;20056;-60
2022/01/07 12:40:37;;;;;;;3.85;0.90;;;;;;;;;;5068617;28;20040;-59
2022/01/07 12:43:03;;;;;;;4.30;1.27;;;;;;;;;;5071492;28;20444;-60
2022/01/07 12:45:30;;;;;;;4.03;1.17;;;;;;;;;;5072480;28;20389;-59
2022/01/07 12:47:57;;;;;;;4.78;1.10;;;;;;;;;;5071348;28;20124;-60
2022/01/07 12:50:24;;;;;;;1.95;0.90;;;;;;;;;;5057275;28;20412;-59
2022/01/07 12:52:50;;;;;;;2.78;0.85;;;;;;;;;;5051698;28;20079;-60
2022/01/07 12:55:21;;;;;;;15.93;1.80;;;;;;;;;;5054222;28;20033;-60
2022/01/07 12:57:48;;;;;;;1.15;0.80;;;;;;;;;;5057157;28;20032;-60
2022/01/07 13:00:14;;;;;;;2.85;0.85;;;;;;;;;;5071245;28;20074;-60
2022/01/07 13:02:41;;;;;;;3.25;0.95;;;;;;;;;;5072124;28;20071;-60
2022/01/07 13:05:14;;;;;;;1.98;0.75;;;;;;;;;;5071575;28;20036;-60
2022/01/07 13:07:41;;;;;;;3.33;1.20;;;;;;;;;;5070615;28;20024;-60
2022/01/07 13:10:08;;;;;;;3.13;0.90;;;;;;;;;;5060024;28;20037;-60
2022/01/07 13:12:34;;;;;;;4.82;1.33;;;;;;;;;;5051840;28;20029;-60
2022/01/07 13:15:00;;;;;;;3.80;1.00;;;;;;;;;;5066330;28;20059;-60
2022/01/07 13:17:28;;;;;;;3.50;0.80;;;;;;;;;;5072041;28;20027;-60
2022/01/07 13:19:57;;;;;;;2.88;0.90;;;;;;;;;;5070757;28;20024;-61
2022/01/07 13:22:26;;;;;;;2.03;1.08;;;;;;;;;;5057800;28;20068;-60
2022/01/07 13:24:52;;;;;;;2.13;0.90;;;;;;;;;;5064594;28;20473;-60
2022/01/07 13:27:18;;;;;;;1.23;0.75;;;;;;;;;;5051646;28;20037;-60
2022/01/07 13:29:48;;;;;;;4.60;1.17;;;;;;;;;;5050841;28;20025;-60
2022/01/07 13:32:19;;;;;;;2.35;1.05;;;;;;;;;;5051786;28;20067;-60
2022/01/07 13:34:45;;;;;;;6.47;1.40;;;;;;;;;;5051438;28;20440;-63
2022/01/07 13:37:13;;;;;;;3.88;1.15;;;;;;;;;;5050612;28;20049;-59
2022/01/07 13:39:40;;;;;;;9.02;1.67;;;;;;;;;;5051475;28;20080;-57
2022/01/07 13:42:07;;;;;;;2.55;1.17;;;;;;;;;;5050823;28;20025;-56
2022/01/07 13:44:48;;;;;;;2.10;0.73;;;;;;;;;;5051564;28;20032;-55
2022/01/07 13:47:25;;;;;;;2.00;0.88;;;;;;;;;;5051698;28;20048;-57
2022/01/07 13:49:52;;;;;;;2.45;1.20;;;;;;;;;;5059563;28;20043;-55
2022/01/07 13:52:26;;;;;;;1.95;0.90;;;;;;;;;;5071456;28;20033;-57
2022/01/07 13:54:52;;;;;;;1.65;1.00;;;;;;;;;;5050364;28;20021;-56
2022/01/07 13:57:18;;;;;;;3.30;1.05;;;;;;;;;;5051106;28;20021;-56
2022/01/07 13:59:47;;;;;;;3.00;0.90;;;;;;;;;;5051808;28;20071;-60
2022/01/07 14:02:16;;;;;;;2.75;0.90;;;;;;;;;;5055497;28;20466;-58
2022/01/07 14:04:55;;;;;;;4.82;1.00;;;;;;;;;;5054885;28;20036;-56
2022/01/07 14:07:31;;;;;;;3.30;0.90;;;;;;;;;;5055253;28;20043;-57
2022/01/07 14:10:06;;;;;;;3.22;0.93;;;;;;;;;;5063119;28;20060;-58
2022/01/07 14:12:33;;;;;;;1.80;1.00;;;;;;;;;;5075010;28;20021;-56
2022/01/07 14:15:06;;;;;;;1.65;0.88;;;;;;;;;;5072691;28;20112;-56
2022/01/07 14:17:32;;;;;;;2.60;0.98;;;;;;;;;;5075115;28;20029;-57
2022/01/07 14:19:59;;;;;;;2.38;0.95;;;;;;;;;;5063342;28;20064;-59
2022/01/07 14:22:25;;;;;;;6.57;0.90;;;;;;;;;;5054771;28;20029;-51
2022/01/07 14:24:52;;;;;;;2.15;0.90;;;;;;;;;;5070078;28;20025;-59
2022/01/07 14:27:25;;;;;;;4.10;1.45;;;;;;;;;;5063428;28;20033;-57
2022/01/07 14:29:51;;;;;;;3.72;0.95;;;;;;;;;;5060551;28;20020;-57
2022/01/07 14:32:18;;;;;;;2.33;0.90;;;;;;;;;;5061617;28;20036;-59
2022/01/07 14:34:45;;;;;;;2.45;0.98;;;;;;;;;;5063145;28;20471;-60
2022/01/07 14:37:11;;;;;;;3.17;1.05;;;;;;;;;;5063370;28;20075;-57
2022/01/07 14:39:37;;;;;;;4.18;1.00;;;;;;;;;;5063840;28;20437;-59
2022/01/07 14:42:03;;;;;;;1.63;0.80;;;;;;;;;;5061442;28;20064;-61
2022/01/07 14:44:29;;;;;;;4.35;0.90;;;;;;;;;;5061963;28;20453;-60
2022/01/07 14:46:55;;;;;;;3.05;1.08;;;;;;;;;;5062480;28;20032;-61
2022/01/07 14:49:21;;;;;;;10.60;1.35;;;;;;;;;;5061853;28;20029;-60
2022/01/07 14:51:47;;;;;;;2.88;1.02;;;;;;;;;;5063215;28;20020;-59
2022/01/07 14:54:13;;;;;;;1.90;0.80;;;;;;;;;;5063450;28;20025;-60